Terminal Aerodrome Forecast
Issued by NWS

Home | Current Version | Previous Version | Text Only | Print | Product List | Glossary On
Versions: 1 2 3 4 5 6 7 8 9 10 11 12 13 14 15 16 17
000
FTUS43 KIND 302300
TAFBMG
TAF
KBMG 302320Z 3100/3124 VRB04KT P6SM VCSH SCT060
     FM310200 00000KT P6SM FEW060
     FM310600 00000KT 3SM BR BCFG SKC
     FM310900 00000KT 1SM BR BCFG SKC
     FM311400 25005KT P6SM SCT050
      AMD LTD TO CLD VIS AND WIND 3101/3113=

USA.gov is the U.S. government's official web portal to all federal, state and local government web resources and services.